KCLW/CLW METAR and TAF weather

Enter ICAO airport designator
Station Type Date Time Source
KCLW METAR 2018/01/19 17:35 UTC NOAA

KCLW 191735Z AUTO 00000KT 10SM CLR 13/00 A3033 RMK AO2


Station Type Date Time Source
KCLW Decoded METAR 2018/01/19 17:35 UTC NOAA

Station name not available
Jan 19, 2018 - 12:35 PM EST / 2018.01.19 1735 UTC
Wind: Calm:0
Visibility: 10 mile(s):0
Sky conditions: clear
Temperature: 55 F (13 C)
Dew Point: 32 F (0 C)
Relative Humidity: 40%
Pressure (altimeter): 30.33 in. Hg (1027 hPa)
ob: KCLW 191735Z AUTO 00000KT 10SM CLR 13/00 A3033 RMK AO2
cycle: 17

Station Type Date Time Source
KCLW TAF UTC NOAA

Error!


Example: see airport list